メインページ
METAR-TAF:

METAR-TAF

空港 :

インディラ・ガンディー国際空港

ニューデリー, インド

緯度: 28-34N, 経度: 077-07E, 海抜: 220m

現時点の気象観測

当レポートは18分前の03:00(UTC)に作成
西/南西の風 4kt
気温 9°C
湿度 100%
気圧 1023 hPa
視程: 0800m
浅い霧

METAR: VIDP 150300Z 24004KT 0800 R28/1400 R29/1400 MIFG NSC 09/09 Q1023 NOSIG

時間: 08:48 (03:18 UTC)

予報

当レポートは1時間18分前の02:00(UTC)に作成
予報は15日の 03時(UTC)から 15日の 12時(UTC)まで有効
西の風 5kt
視程: 0600m
浅い霧
15日の 04時(UTC)から 15日の 06時(UTC)まで徐々に
視程: 1500m
15日の 08時(UTC)から 15日の 10時(UTC)まで徐々に
西/北西の風 8kt
視程: 4000m
煙霧

TAF: VIDP 150200Z 1503/1512 27005KT 0600 MIFG NSC BECMG 1504/1506 1500 BR BECMG 1508/1510 30008KT 4000 HZ

4,000以上の空港の気象観測と天気予報(METAR報とTAF報)

利用可能な観測所は地図上に黄色い丸と赤い丸で示す。

丸の上にカーソルを重ねると観測所名を参照できる。

次にクリックすると気象観測と天気予報を参照できる。

マップの切り替え:黒色「×」印の緑ボタンをクリックして拡大、「-」印の緑ボタンをクリックして縮小、緑色の三角印をクリックして隣りの地図に切り替え


METAR-TAF: